createdAt,value
2019-04-29T00:00:33.688Z,100131.17
2019-04-29T00:03:01.127Z,100137.63
2019-04-29T00:05:28.585Z,100141.10
2019-04-29T00:07:56.098Z,100138.46
2019-04-29T00:10:23.500Z,100135.27
2019-04-29T00:12:50.996Z,100133.05
2019-04-29T00:15:18.488Z,100140.84
2019-04-29T00:17:47.910Z,100137.44
2019-04-29T00:20:15.351Z,100140.11
2019-04-29T00:22:42.768Z,100143.83
2019-04-29T00:25:10.274Z,100145.24
2019-04-29T00:27:37.737Z,100144.86
2019-04-29T00:30:06.039Z,100148.11
2019-04-29T00:32:33.456Z,100150.33
2019-04-29T00:35:01.832Z,100153.69
2019-04-29T00:37:29.623Z,100153.14
2019-04-29T00:39:57.531Z,100150.70
2019-04-29T00:42:25.032Z,100148.50
2019-04-29T00:44:52.503Z,100150.26
2019-04-29T00:47:20.869Z,100150.98
2019-04-29T00:49:48.301Z,100151.73
2019-04-29T00:52:15.727Z,100147.70
2019-04-29T00:54:54.041Z,100155.11
2019-04-29T00:57:21.497Z,100149.33
2019-04-29T00:59:48.991Z,100153.03
2019-04-29T01:02:16.466Z,100150.29
2019-04-29T01:04:43.875Z,100149.05
2019-04-29T01:07:11.299Z,100147.55
2019-04-29T01:09:39.589Z,100151.36
2019-04-29T01:12:07.092Z,100154.42
2019-04-29T01:14:34.602Z,100153.23
2019-04-29T01:17:02.059Z,100151.23
2019-04-29T01:19:29.489Z,100160.64
2019-04-29T01:21:57.916Z,100157.58
2019-04-29T01:24:25.465Z,100147.58
2019-04-29T01:27:08.358Z,100159.43
2019-04-29T01:29:35.810Z,100154.33
2019-04-29T01:32:03.301Z,100153.73
2019-04-29T01:34:33.259Z,100157.56
2019-04-29T01:37:00.725Z,100157.42
2019-04-29T01:39:38.070Z,100161.23
2019-04-29T01:42:05.564Z,100159.23
2019-04-29T01:44:32.962Z,100165.47
2019-04-29T01:47:00.434Z,100162.66
2019-04-29T01:49:27.894Z,100166.91
2019-04-29T01:51:55.362Z,100166.95
2019-04-29T01:54:22.831Z,100172.58
2019-04-29T01:56:50.320Z,100166.54
2019-04-29T01:59:17.802Z,100168.66
2019-04-29T02:01:45.292Z,100172.03
2019-04-29T02:04:12.749Z,100172.81
2019-04-29T02:06:40.230Z,100172.16
2019-04-29T02:09:10.043Z,100170.48
2019-04-29T02:11:35.172Z,100174.13
2019-04-29T02:14:02.645Z,100183.05
2019-04-29T02:16:30.157Z,100184.40
2019-04-29T02:18:57.615Z,100176.23
2019-04-29T02:21:25.058Z,100178.97
2019-04-29T02:23:53.478Z,100177.47
2019-04-29T02:26:21.026Z,100181.64
2019-04-29T02:28:48.440Z,100179.87
2019-04-29T02:31:21.374Z,100183.88
2019-04-29T02:33:48.810Z,100178.48
2019-04-29T02:36:16.295Z,100176.87
2019-04-29T02:38:54.422Z,100176.70
2019-04-29T02:41:41.599Z,100175.89
2019-04-29T02:44:09.061Z,100171.00
2019-04-29T02:46:36.509Z,100176.25
2019-04-29T02:49:03.951Z,100175.16
2019-04-29T02:51:36.929Z,100175.02
2019-04-29T02:54:04.429Z,100172.48
2019-04-29T02:56:31.852Z,100168.54
2019-04-29T02:58:59.285Z,100175.48
2019-04-29T03:01:26.982Z,100172.37
2019-04-29T03:03:56.867Z,100168.59
2019-04-29T03:06:24.445Z,100164.57
2019-04-29T03:08:51.894Z,100169.48
2019-04-29T03:11:19.316Z,100170.52
2019-04-29T03:13:46.775Z,100172.97
2019-04-29T03:16:15.861Z,100177.63
2019-04-29T03:18:45.846Z,100175.14
2019-04-29T03:21:13.291Z,100178.66
2019-04-29T03:23:40.767Z,100183.25
2019-04-29T03:26:08.223Z,100187.58
2019-04-29T03:28:35.718Z,100186.73
2019-04-29T03:31:03.248Z,100183.58
2019-04-29T03:33:30.713Z,100184.99
2019-04-29T03:35:58.172Z,100187.61
2019-04-29T03:38:25.611Z,100187.81
2019-04-29T03:40:53.054Z,100185.31
2019-04-29T03:43:20.545Z,100185.14
2019-04-29T03:45:47.960Z,100190.33
2019-04-29T03:48:15.406Z,100194.88
2019-04-29T03:50:42.880Z,100195.17
2019-04-29T03:53:10.363Z,100195.22
2019-04-29T03:55:40.345Z,100200.38
2019-04-29T03:58:05.307Z,100201.34
2019-04-29T04:00:32.732Z,100208.37
2019-04-29T04:03:01.984Z,100207.48
2019-04-29T04:05:34.823Z,100210.11
2019-04-29T04:08:05.868Z,100215.08
2019-04-29T04:10:33.321Z,100208.83
2019-04-29T04:13:01.550Z,100207.73
2019-04-29T04:15:29.074Z,100204.99
2019-04-29T04:18:02.196Z,100215.22
2019-04-29T04:20:29.670Z,100208.69
2019-04-29T04:22:57.193Z,100211.99
2019-04-29T04:25:24.699Z,100220.88
2019-04-29T04:27:52.184Z,100220.73
2019-04-29T04:30:19.646Z,100224.32
2019-04-29T04:32:47.895Z,100227.80
2019-04-29T04:35:15.397Z,100228.38
2019-04-29T04:37:42.859Z,100226.22
2019-04-29T04:40:10.379Z,100225.09
2019-04-29T04:42:37.873Z,100227.88
2019-04-29T04:45:06.081Z,100233.17
2019-04-29T04:47:33.495Z,100230.89
2019-04-29T04:50:01.060Z,100235.00
2019-04-29T04:52:28.607Z,100235.45
2019-04-29T04:54:56.072Z,100231.52
2019-04-29T04:57:23.532Z,100234.92
2019-04-29T04:59:51.084Z,100238.58
2019-04-29T05:02:19.090Z,100238.02
2019-04-29T05:04:46.569Z,100237.35
2019-04-29T05:07:14.016Z,100240.56
2019-04-29T05:09:41.489Z,100235.59
2019-04-29T05:12:09.059Z,100239.09
2019-04-29T05:14:36.555Z,100244.35
2019-04-29T05:17:05.840Z,100245.07
2019-04-29T05:19:33.415Z,100246.57
2019-04-29T05:22:00.904Z,100244.81
2019-04-29T05:24:28.382Z,100248.87
2019-04-29T05:26:55.951Z,100248.54
2019-04-29T05:29:23.411Z,100249.72
2019-04-29T05:31:50.942Z,100248.67
2019-04-29T05:34:18.403Z,100254.70
2019-04-29T05:36:46.790Z,100253.61
2019-04-29T05:39:16.619Z,100256.63
2019-04-29T05:41:44.070Z,100254.25
2019-04-29T05:44:11.501Z,100257.73
2019-04-29T05:46:39.903Z,100264.41
2019-04-29T05:49:08.871Z,100268.66
2019-04-29T05:51:39.832Z,100269.65
2019-04-29T05:54:07.285Z,100271.17
2019-04-29T05:56:34.770Z,100267.89
2019-04-29T05:59:02.184Z,100274.56
2019-04-29T06:01:29.595Z,100274.91
2019-04-29T06:03:57.059Z,100280.73
2019-04-29T06:06:24.529Z,100277.88
2019-04-29T06:08:52.030Z,100288.61
2019-04-29T06:11:22.941Z,100288.76
2019-04-29T06:13:47.121Z,100291.44
2019-04-29T06:16:15.736Z,100292.62
2019-04-29T06:18:42.072Z,100299.23
2019-04-29T06:21:09.828Z,100300.78
2019-04-29T06:23:37.099Z,100303.09
2019-04-29T06:26:04.639Z,100302.97
2019-04-29T06:28:32.078Z,100303.16
2019-04-29T06:30:59.542Z,100297.73
2019-04-29T06:33:29.049Z,100301.33
2019-04-29T06:35:56.911Z,100303.85
2019-04-29T06:38:21.981Z,100308.37
2019-04-29T06:40:49.448Z,100305.27
2019-04-29T06:43:17.227Z,100306.41
2019-04-29T06:45:44.418Z,100297.51
2019-04-29T06:48:11.971Z,100298.28
2019-04-29T06:50:39.403Z,100301.22
2019-04-29T06:53:06.840Z,100302.50
2019-04-29T06:55:34.359Z,100299.91
2019-04-29T06:58:01.824Z,100307.14
2019-04-29T07:00:29.260Z,100305.03
2019-04-29T07:02:56.752Z,100313.06
2019-04-29T07:05:24.354Z,100310.58
2019-04-29T07:07:51.879Z,100312.38
2019-04-29T07:10:21.659Z,100310.07
2019-04-29T07:12:47.665Z,100319.71
2019-04-29T07:15:14.357Z,100318.80
2019-04-29T07:17:43.025Z,100318.89
2019-04-29T07:20:09.332Z,100315.57
2019-04-29T07:22:36.826Z,100316.07
2019-04-29T07:25:04.291Z,100317.27
2019-04-29T07:27:34.486Z,100322.72
2019-04-29T07:30:01.719Z,100323.89
2019-04-29T07:32:26.755Z,100318.67
2019-04-29T07:34:54.371Z,100321.67
2019-04-29T07:37:21.826Z,100325.41
2019-04-29T07:39:49.441Z,100329.47
2019-04-29T07:42:16.926Z,100329.13
2019-04-29T07:45:05.116Z,100331.60
2019-04-29T07:47:32.615Z,100329.92
2019-04-29T07:50:00.147Z,100336.45
2019-04-29T07:52:27.611Z,100332.77
2019-04-29T07:54:56.251Z,100334.12
2019-04-29T07:57:22.608Z,100325.84
2019-04-29T07:59:50.102Z,100329.35
2019-04-29T08:02:18.025Z,100329.19
2019-04-29T08:04:45.587Z,100335.34
2019-04-29T08:07:13.023Z,100334.94
2019-04-29T08:09:44.192Z,100329.92
2019-04-29T08:12:07.951Z,100332.93
2019-04-29T08:14:35.360Z,100334.30
2019-04-29T08:17:02.915Z,100330.94
2019-04-29T08:19:31.550Z,100322.34
2019-04-29T08:21:57.842Z,100321.53
2019-04-29T08:24:25.287Z,100318.17
2019-04-29T08:26:52.779Z,100326.14
2019-04-29T08:29:20.248Z,100328.78
2019-04-29T08:31:51.660Z,100330.09
2019-04-29T08:34:18.669Z,100330.67
2019-04-29T08:36:44.097Z,100329.70
2019-04-29T08:39:11.618Z,100325.31
2019-04-29T08:41:39.136Z,100331.14
2019-04-29T08:44:15.714Z,100335.57
2019-04-29T08:46:36.591Z,100331.73
2019-04-29T08:49:06.037Z,100332.80
2019-04-29T08:51:31.532Z,100324.20
2019-04-29T08:53:59.047Z,100322.36
2019-04-29T08:56:26.560Z,100324.54
2019-04-29T08:58:54.576Z,100322.67
2019-04-29T09:01:24.587Z,100317.23
2019-04-29T09:03:49.585Z,100314.71
2019-04-29T09:06:18.101Z,100319.52
2019-04-29T09:08:55.030Z,100312.46
2019-04-29T09:11:14.441Z,100314.76
2019-04-29T09:13:40.603Z,100312.95
2019-04-29T09:16:08.079Z,100313.76
2019-04-29T09:18:35.516Z,100311.18
2019-04-29T09:21:04.004Z,100312.92
2019-04-29T09:23:32.473Z,100305.48
2019-04-29T09:26:02.890Z,100310.52
2019-04-29T09:28:29.709Z,100312.55
2019-04-29T09:30:54.942Z,100314.21
2019-04-29T09:33:22.779Z,100307.27
2019-04-29T09:35:50.246Z,100302.67
2019-04-29T09:38:18.107Z,100297.48
2019-04-29T09:40:54.627Z,100299.30
2019-04-29T09:43:34.346Z,100299.25
2019-04-29T09:46:01.867Z,100290.33
2019-04-29T09:48:29.342Z,100292.95
2019-04-29T09:50:56.815Z,100293.20
2019-04-29T09:53:24.902Z,100296.61
2019-04-29T09:55:52.348Z,100283.16
2019-04-29T09:58:19.828Z,100288.47
2019-04-29T10:00:49.126Z,100278.64
2019-04-29T10:03:18.173Z,100280.23
2019-04-29T10:05:46.933Z,100281.39
2019-04-29T10:08:14.690Z,100277.73
2019-04-29T10:10:42.200Z,100276.34
2019-04-29T10:13:09.627Z,100278.03
2019-04-29T10:15:55.897Z,100276.11
2019-04-29T10:18:20.492Z,100272.42
2019-04-29T10:20:48.808Z,100267.48
2019-04-29T10:23:16.269Z,100264.14
2019-04-29T10:25:43.686Z,100264.06
2019-04-29T10:28:11.123Z,100252.00
2019-04-29T10:30:38.547Z,100248.86
2019-04-29T10:33:05.986Z,100252.54
2019-04-29T10:35:33.519Z,100254.88
2019-04-29T10:38:02.949Z,100247.75
2019-04-29T10:40:43.369Z,100251.15
2019-04-29T10:43:25.638Z,100256.88
2019-04-29T10:45:58.648Z,100253.14
2019-04-29T10:48:28.526Z,100253.69
2019-04-29T10:50:55.985Z,100250.77
2019-04-29T10:53:23.437Z,100252.24
2019-04-29T10:58:40.985Z,100244.88
2019-04-29T11:04:18.867Z,100234.99
2019-04-29T11:06:46.406Z,100240.67
2019-04-29T11:09:23.761Z,100243.72
2019-04-29T11:11:51.256Z,100240.88
2019-04-29T11:16:46.662Z,100239.02
2019-04-29T11:19:08.932Z,100236.91
2019-04-29T11:21:38.898Z,100236.30
2019-04-29T11:24:03.968Z,100227.71
2019-04-29T11:26:45.230Z,100234.19
2019-04-29T11:29:12.649Z,100237.69
2019-04-29T11:31:40.134Z,100228.14
2019-04-29T11:34:15.885Z,100224.98
2019-04-29T11:36:44.071Z,100229.56
2019-04-29T11:39:09.047Z,100222.53
2019-04-29T11:41:35.566Z,100219.20
2019-04-29T11:44:02.978Z,100211.98
2019-04-29T11:46:30.394Z,100211.47
2019-04-29T11:48:57.905Z,100218.34
2019-04-29T11:51:34.123Z,100213.34
2019-04-29T11:54:01.005Z,100204.55
2019-04-29T11:56:28.446Z,100208.97
2019-04-29T11:59:02.016Z,100202.85
2019-04-29T12:01:38.774Z,100205.59
2019-04-29T12:04:00.575Z,100196.45
2019-04-29T12:06:28.042Z,100193.06
2019-04-29T12:08:56.352Z,100190.02
2019-04-29T12:11:23.827Z,100187.11
2019-04-29T12:14:09.084Z,100186.59
2019-04-29T12:16:36.606Z,100182.78
2019-04-29T12:19:09.437Z,100190.62
2019-04-29T12:21:36.888Z,100180.41
2019-04-29T12:24:04.320Z,100179.48
2019-04-29T12:26:35.038Z,100178.06
2019-04-29T12:29:01.135Z,100175.34
2019-04-29T12:31:29.496Z,100174.89
2019-04-29T12:33:56.887Z,100170.46
2019-04-29T12:36:24.317Z,100166.13
2019-04-29T12:38:57.302Z,100173.80
2019-04-29T12:41:31.483Z,100164.64
2019-04-29T12:43:59.574Z,100160.13
2019-04-29T12:46:40.172Z,100151.28
2019-04-29T12:49:08.660Z,100163.83
2019-04-29T12:51:35.107Z,100157.89
2019-04-29T12:54:02.773Z,100159.89
2019-04-29T12:56:32.763Z,100156.50
2019-04-29T12:59:01.843Z,100153.32
2019-04-29T13:01:51.322Z,100152.02
2019-04-29T13:04:18.702Z,100151.31
2019-04-29T13:07:06.671Z,100140.19
2019-04-29T13:09:34.809Z,100143.59
2019-04-29T13:12:17.671Z,100139.79
2019-04-29T13:14:28.697Z,100129.69
2019-04-29T13:16:57.031Z,100131.77
2019-04-29T13:19:25.099Z,100130.58
2019-04-29T13:21:51.762Z,100131.92
2019-04-29T13:24:24.641Z,100123.78
2019-04-29T13:26:46.748Z,100119.78
2019-04-29T13:29:26.358Z,100119.64
2019-04-29T13:31:42.018Z,100126.28
2019-04-29T13:34:23.470Z,100130.02
2019-04-29T13:36:36.841Z,100119.10
2019-04-29T13:39:04.473Z,100111.11
2019-04-29T13:41:31.973Z,100113.75
2019-04-29T13:44:05.351Z,100111.80
2019-04-29T13:46:30.987Z,100104.53
2019-04-29T13:49:12.306Z,100105.70
2019-04-29T13:51:39.150Z,100106.70
2019-04-29T13:54:06.672Z,100118.09
2019-04-29T13:56:54.634Z,100103.71
2019-04-29T13:59:09.877Z,100115.72
2019-04-29T14:01:33.163Z,100103.23
2019-04-29T14:04:01.097Z,100105.97
2019-04-29T14:06:28.575Z,100112.33
2019-04-29T14:08:56.002Z,100104.22
2019-04-29T14:11:25.986Z,100101.30
2019-04-29T14:13:50.985Z,100096.88
2019-04-29T14:16:19.316Z,100104.58
2019-04-29T14:18:48.353Z,100105.13
2019-04-29T14:21:13.524Z,100098.00
2019-04-29T14:23:40.982Z,100104.62
2019-04-29T14:26:08.408Z,100093.19
2019-04-29T14:28:35.836Z,100091.11
2019-04-29T14:31:03.390Z,100094.73
2019-04-29T14:33:31.399Z,100087.44
2019-04-29T14:36:01.498Z,100088.48
2019-04-29T14:38:29.073Z,100092.06
2019-04-29T14:40:56.530Z,100089.20
2019-04-29T14:43:32.177Z,100087.83
2019-04-29T14:45:57.246Z,100090.02
2019-04-29T14:48:42.546Z,100084.73
2019-04-29T14:51:03.981Z,100089.55
2019-04-29T14:53:31.522Z,100084.96
2019-04-29T14:55:59.516Z,100090.23
2019-04-29T14:58:27.448Z,100093.92
2019-04-29T15:00:55.060Z,100078.02
2019-04-29T15:03:22.541Z,100086.35
2019-04-29T15:05:50.016Z,100080.70
2019-04-29T15:08:18.215Z,100081.08
2019-04-29T15:10:45.715Z,100081.56
2019-04-29T15:13:21.381Z,100084.10
2019-04-29T15:15:46.270Z,100093.56
2019-04-29T15:18:16.144Z,100083.12
2019-04-29T15:20:41.708Z,100083.39
2019-04-29T15:23:09.186Z,100084.37
2019-04-29T15:25:36.666Z,100079.33
2019-04-29T15:28:04.278Z,100078.04
2019-04-29T15:30:36.597Z,100073.89
2019-04-29T15:33:00.552Z,100080.80
2019-04-29T15:35:28.129Z,100080.87
2019-04-29T15:37:55.652Z,100087.34
2019-04-29T15:40:26.088Z,100082.95
2019-04-29T15:42:53.166Z,100075.44
2019-04-29T15:45:18.076Z,100078.40
2019-04-29T15:47:47.000Z,100077.73
2019-04-29T15:50:18.868Z,100078.49
2019-04-29T15:52:40.843Z,100082.94
2019-04-29T15:55:08.328Z,100076.53
2019-04-29T15:57:36.809Z,100080.72
2019-04-29T16:00:20.775Z,100080.26
2019-04-29T16:02:35.938Z,100082.22
2019-04-29T16:05:04.736Z,100079.80
2019-04-29T16:07:33.313Z,100085.12
2019-04-29T16:10:05.592Z,100083.91
2019-04-29T16:12:52.890Z,100082.92
2019-04-29T16:15:20.347Z,100082.16
2019-04-29T16:17:47.853Z,100082.95
2019-04-29T16:20:16.068Z,100085.91
2019-04-29T16:22:43.730Z,100089.39
2019-04-29T16:25:12.828Z,100085.84
2019-04-29T16:27:41.698Z,100092.27
2019-04-29T16:30:06.153Z,100092.15
2019-04-29T16:32:33.628Z,100092.78
2019-04-29T16:35:01.592Z,100093.61
2019-04-29T16:37:31.747Z,100094.30
2019-04-29T16:39:59.598Z,100097.85
2019-04-29T16:42:34.874Z,100089.12
2019-04-29T16:45:06.116Z,100090.95
2019-04-29T16:47:29.842Z,100086.61
2019-04-29T16:50:04.138Z,100091.13
2019-04-29T16:52:24.802Z,100102.81
2019-04-29T16:54:52.260Z,100101.02
2019-04-29T16:57:19.715Z,100100.78
2019-04-29T16:59:47.179Z,100107.11
2019-04-29T17:02:19.349Z,100100.39
2019-04-29T17:04:42.188Z,100106.16
2019-04-29T17:07:12.639Z,100098.16
2019-04-29T17:09:40.450Z,100091.95
2019-04-29T17:12:08.062Z,100092.45
2019-04-29T17:15:01.158Z,100093.80
2019-04-29T17:17:03.030Z,100093.55
2019-04-29T17:19:30.482Z,100091.13
2019-04-29T17:22:24.163Z,100092.50
2019-04-29T17:24:25.491Z,100086.64
2019-04-29T17:26:53.461Z,100087.03
2019-04-29T17:29:39.221Z,100087.15
2019-04-29T17:31:57.268Z,100091.27
2019-04-29T17:34:54.551Z,100085.02
2019-04-29T17:36:49.747Z,100086.21
2019-04-29T17:39:17.190Z,100089.13
2019-04-29T17:41:44.924Z,100084.32
2019-04-29T17:44:14.606Z,100088.41
2019-04-29T17:46:44.876Z,100092.03
2019-04-29T17:49:14.978Z,100089.00
2019-04-29T17:51:42.642Z,100091.81
2019-04-29T17:54:11.861Z,100090.85
2019-04-29T17:56:45.122Z,100101.09
2019-04-29T17:59:17.778Z,100100.80
2019-04-29T18:01:50.994Z,100101.91
2019-04-29T18:04:20.145Z,100101.39
2019-04-29T18:06:46.010Z,100103.59
2019-04-29T18:09:19.177Z,100107.50
2019-04-29T18:11:51.882Z,100103.62
2019-04-29T18:14:14.987Z,100107.98
2019-04-29T18:16:43.692Z,100114.08
2019-04-29T18:19:09.062Z,100119.06
2019-04-29T18:21:51.374Z,100118.60
2019-04-29T18:24:23.263Z,100120.28
2019-04-29T18:26:58.313Z,100126.98
2019-04-29T18:29:25.835Z,100123.44
2019-04-29T18:31:53.318Z,100127.08
2019-04-29T18:34:20.787Z,100130.58
2019-04-29T18:36:48.210Z,100128.78
2019-04-29T18:39:19.992Z,100128.13
2019-04-29T18:41:44.806Z,100126.77
2019-04-29T18:44:18.977Z,100129.77
2019-04-29T18:46:38.620Z,100127.56
2019-04-29T18:49:07.139Z,100132.33
2019-04-29T18:51:34.748Z,100130.87
2019-04-29T18:54:01.621Z,100133.73
2019-04-29T18:56:32.292Z,100139.07
2019-04-29T18:58:56.749Z,100137.93
2019-04-29T19:01:28.891Z,100137.00
2019-04-29T19:03:51.887Z,100144.23
2019-04-29T19:06:19.592Z,100141.10
2019-04-29T19:08:47.279Z,100139.94
2019-04-29T19:11:15.276Z,100143.09
2019-04-29T19:13:43.545Z,100147.07
2019-04-29T19:16:12.377Z,100148.50
2019-04-29T19:18:37.331Z,100146.46
2019-04-29T19:21:06.774Z,100155.03
2019-04-29T19:23:32.326Z,100148.53
2019-04-29T19:25:59.854Z,100147.93
2019-04-29T19:28:30.973Z,100160.05
2019-04-29T19:31:02.897Z,100151.31
2019-04-29T19:33:25.231Z,100158.55
2019-04-29T19:35:51.021Z,100159.50
2019-04-29T19:38:18.736Z,100164.70
2019-04-29T19:40:46.218Z,100162.39
2019-04-29T19:43:15.385Z,100164.98
2019-04-29T19:45:44.678Z,100165.23
2019-04-29T19:48:08.739Z,100156.18
2019-04-29T19:50:36.265Z,100161.37
2019-04-29T19:53:04.935Z,100166.41
2019-04-29T19:55:33.180Z,100163.45
2019-04-29T19:57:59.146Z,100164.62
2019-04-29T20:00:29.365Z,100167.03
2019-04-29T20:02:56.889Z,100168.83
2019-04-29T20:05:31.372Z,100165.66
2019-04-29T20:07:58.342Z,100171.29
2019-04-29T20:10:22.777Z,100161.76
2019-04-29T20:12:53.106Z,100164.34
2019-04-29T20:15:17.617Z,100167.72
2019-04-29T20:17:51.589Z,100168.63
2019-04-29T20:20:19.356Z,100170.25
2019-04-29T20:22:51.170Z,100170.26
2019-04-29T20:25:16.226Z,100167.23
2019-04-29T20:27:43.309Z,100161.97
2019-04-29T20:30:16.496Z,100171.16
2019-04-29T20:32:37.155Z,100172.48
2019-04-29T20:35:08.355Z,100172.81
2019-04-29T20:37:32.886Z,100169.93
2019-04-29T20:40:00.926Z,100171.52
2019-04-29T20:42:27.845Z,100171.98
2019-04-29T20:44:55.478Z,100178.95
2019-04-29T20:47:23.970Z,100174.30
2019-04-29T20:49:50.313Z,100179.31
2019-04-29T20:52:37.204Z,100173.80
2019-04-29T20:55:07.321Z,100178.19
2019-04-29T20:57:32.122Z,100180.66
2019-04-29T20:59:59.690Z,100181.88
2019-04-29T21:02:31.308Z,100182.48
2019-04-29T21:04:55.807Z,100176.25
2019-04-29T21:07:23.828Z,100182.19
2019-04-29T21:09:49.543Z,100174.88
2019-04-29T21:12:22.429Z,100176.72
2019-04-29T21:14:50.137Z,100176.28
2019-04-29T21:17:28.722Z,100176.65
2019-04-29T21:19:45.019Z,100170.03
2019-04-29T21:22:18.388Z,100170.25
2019-04-29T21:24:40.040Z,100167.11
2019-04-29T21:27:07.468Z,100163.80
2019-04-29T21:29:35.817Z,100167.01
2019-04-29T21:32:02.390Z,100162.86
2019-04-29T21:34:34.561Z,100169.57
2019-04-29T21:37:01.703Z,100166.55
2019-04-29T21:39:27.634Z,100170.36
2019-04-29T21:41:58.682Z,100170.36
2019-04-29T21:44:23.721Z,100170.01
2019-04-29T21:46:50.072Z,100174.38
2019-04-29T21:49:18.503Z,100170.19
2019-04-29T21:51:49.791Z,100179.64
2019-04-29T21:54:16.137Z,100173.72
2019-04-29T21:56:46.958Z,100167.09
2019-04-29T21:59:12.374Z,100164.56
2019-04-29T22:01:40.817Z,100163.88
2019-04-29T22:04:08.762Z,100165.03
2019-04-29T22:06:36.970Z,100161.20
2019-04-29T22:09:05.253Z,100156.48
2019-04-29T22:11:37.775Z,100160.41
2019-04-29T22:14:00.803Z,100158.29
2019-04-29T22:16:28.329Z,100165.38
2019-04-29T22:18:55.944Z,100165.64
2019-04-29T22:21:23.631Z,100160.84
2019-04-29T22:23:52.340Z,100161.09
2019-04-29T22:26:23.357Z,100165.75
2019-04-29T22:28:48.846Z,100167.52
2019-04-29T22:31:15.386Z,100163.66
2019-04-29T22:33:42.058Z,100165.21
2019-04-29T22:36:10.103Z,100167.19
2019-04-29T22:38:37.019Z,100171.73
2019-04-29T22:41:05.091Z,100158.53
2019-04-29T22:43:36.115Z,100166.25
2019-04-29T22:46:04.877Z,100164.45
2019-04-29T22:48:31.228Z,100164.52
2019-04-29T22:50:58.672Z,100155.31
2019-04-29T22:53:26.144Z,100154.09
2019-04-29T22:55:53.596Z,100155.98
2019-04-29T22:58:21.081Z,100154.99
2019-04-29T23:00:48.562Z,100162.73
2019-04-29T23:03:16.103Z,100159.98
2019-04-29T23:05:46.186Z,100163.67
2019-04-29T23:08:12.199Z,100157.24
2019-04-29T23:10:39.702Z,100163.73
2019-04-29T23:13:07.143Z,100153.30
2019-04-29T23:15:35.696Z,100151.59
2019-04-29T23:18:02.142Z,100151.00
2019-04-29T23:20:35.370Z,100150.50
2019-04-29T23:23:05.305Z,100150.82
2019-04-29T23:25:49.846Z,100146.16
2019-04-29T23:28:18.207Z,100149.30
2019-04-29T23:30:47.727Z,100140.57
2019-04-29T23:33:15.058Z,100146.52
2019-04-29T23:35:41.079Z,100147.17
2019-04-29T23:38:09.447Z,100138.27
2019-04-29T23:40:35.541Z,100140.25
2019-04-29T23:43:02.983Z,100140.10
2019-04-29T23:45:30.440Z,100138.77
2019-04-29T23:47:57.887Z,100143.42
2019-04-29T23:50:28.151Z,100135.66
2019-04-29T23:52:53.467Z,100134.45
2019-04-29T23:55:27.774Z,100139.53
2019-04-29T23:57:48.907Z,100139.84
